aviador You're here:

KEPH Decoded Metar

EPHRATA in WA, USA
Report Time2017-05-28 23:53:00
UTC Time2017-05-29 00:04:38
Flight Rules vfr VFR
WindVRB at 03 kt
Visibility9999 m
Phenomena:N/A
Clouds:N/A
Expected CloudBase > 11,200 ft AGL from Temp-Dew spread
CeilingNone
Temp32°C (ISA +19)
Dew Point04°C (17% RH)
Heat Index29.8°C
AAT29.6°C
QNH1017 hPa
Density Alt3,458 ft
Elevation1,257 ft
Report Wrong Elevation
Raw Report
KEPH 282353Z AUTO VRB03KT 10SM CLR 32/04 A3004 RMK AO2 SLP164
T03170039 10328 20272 58014=

Extra information for KEPH:More info

Metar Taf Metar & Taf Last 4 Metars F.Rules Stats Wind Profile Meteogram Temp Stats Airport Information Weather charts Add Link Nearby VenuesMetar ALERT Operation Metar Decoded Social comments

AIRNAV info for KEPH